Kezdőlap
METAR-TAF:

METAR-TAF

Repülőterek :

Volk Field Air National Guard Base

Camp Douglas, Wisconsin, Amerikai Egyesült Államok

földrajzi szélesség: 43-56N, földrajzi hosszúság: 090-16W, magasság: 277 m

Jelenlegi meteorológiai megfigyelések

A jelentés 50 perccel ezelõtt készült, 08:56 UTC
Nyugat-északnyugati szél 6 kt
Hőmérséklet -9°C
Páratartalom 85%
Légköri nyomás 1034 hPa
Látótávolság: 16.1 km
Borult 2400 lábon

METAR: KVOK 200856Z AUTO 30006KT 10SM OVC024 M09/M11 A3053 RMK AO2 SLP361 60000 T10951107 53000 $

Idő: 03:46 (09:46 UTC)


TAF: hiányzik

Meteorológiai megfigyelések és előrejelzések több, mint 4000 repülőtéren (METAR és TAF jelentéseket).

A térképen piros és sárga pontok jelzik az elérhető meteorológiai állomásokat.

Mozgassa az egeret a pont fölött, hogy megjelenjen az állomás neve.

Azután kattintson az időjárási megfigyelések és előrejelzések megtekintéséhez.

A térkép megváltoztatása: kattintson a fekete keresztel jelölt zöld gombra ráközelítéshez, a vonallal jelölt zöld gombra távolításhoz, vagy a zöld nyilakra a szomszédos térképek eléréséhez.


METAR-TAF: